sensor_id;sensor_type;location;lat;lon;timestamp;pressure;altitude;pressure_sealevel;temperature;humidity
40285;BME280;25997;50.214;19.354;2023-04-27T00:02:17;97918.44;;;5.36;40.67
40285;BME280;25997;50.214;19.354;2023-04-27T00:05:20;97923.69;;;5.38;40.69
40285;BME280;25997;50.214;19.354;2023-04-27T00:08:24;97918.28;;;5.33;40.75
40285;BME280;25997;50.214;19.354;2023-04-27T00:11:27;97922.44;;;5.28;40.86
40285;BME280;25997;50.214;19.354;2023-04-27T00:14:29;97920.03;;;5.33;41.07
40285;BME280;25997;50.214;19.354;2023-04-27T00:17:31;97920.97;;;5.35;40.92
40285;BME280;25997;50.214;19.354;2023-04-27T00:20:34;97913.03;;;5.32;40.90
40285;BME280;25997;50.214;19.354;2023-04-27T00:23:38;97911.81;;;5.24;40.92
40285;BME280;25997;50.214;19.354;2023-04-27T00:26:40;97910.56;;;5.16;40.95
40285;BME280;25997;50.214;19.354;2023-04-27T00:29:43;97908.44;;;5.07;41.12
40285;BME280;25997;50.214;19.354;2023-04-27T00:32:45;97913.44;;;5.03;41.22
40285;BME280;25997;50.214;19.354;2023-04-27T00:35:50;97914.88;;;4.96;41.24
40285;BME280;25997;50.214;19.354;2023-04-27T00:38:54;97913.00;;;4.93;41.27
40285;BME280;25997;50.214;19.354;2023-04-27T00:41:56;97917.03;;;4.87;41.46
40285;BME280;25997;50.214;19.354;2023-04-27T00:45:01;97914.97;;;4.80;41.56
40285;BME280;25997;50.214;19.354;2023-04-27T00:48:05;97913.66;;;4.70;41.74
40285;BME280;25997;50.214;19.354;2023-04-27T00:51:08;97923.56;;;4.60;41.82
40285;BME280;25997;50.214;19.354;2023-04-27T00:54:12;97918.22;;;4.57;41.85
40285;BME280;25997;50.214;19.354;2023-04-27T00:57:16;97911.94;;;4.53;41.91
40285;BME280;25997;50.214;19.354;2023-04-27T01:00:19;97922.22;;;4.50;41.82
40285;BME280;25997;50.214;19.354;2023-04-27T01:03:22;97916.06;;;4.48;41.91
40285;BME280;25997;50.214;19.354;2023-04-27T01:06:24;97923.88;;;4.48;41.87
40285;BME280;25997;50.214;19.354;2023-04-27T01:09:29;97925.34;;;4.43;41.97
40285;BME280;25997;50.214;19.354;2023-04-27T01:12:32;97928.69;;;4.41;42.04
40285;BME280;25997;50.214;19.354;2023-04-27T01:15:34;97924.22;;;4.38;42.09
40285;BME280;25997;50.214;19.354;2023-04-27T01:18:37;97925.97;;;4.38;42.06
40285;BME280;25997;50.214;19.354;2023-04-27T01:21:40;97921.41;;;4.34;42.24
40285;BME280;25997;50.214;19.354;2023-04-27T01:24:44;97924.69;;;4.30;42.25
40285;BME280;25997;50.214;19.354;2023-04-27T01:27:47;97928.13;;;4.29;42.33
40285;BME280;25997;50.214;19.354;2023-04-27T01:30:49;97936.56;;;4.25;42.46
40285;BME280;25997;50.214;19.354;2023-04-27T01:33:51;97928.25;;;4.14;42.58
40285;BME280;25997;50.214;19.354;2023-04-27T01:36:54;97930.31;;;4.03;42.89
40285;BME280;25997;50.214;19.354;2023-04-27T01:39:58;97933.50;;;3.98;42.92
40285;BME280;25997;50.214;19.354;2023-04-27T01:43:02;97935.00;;;3.93;43.10
40285;BME280;25997;50.214;19.354;2023-04-27T01:46:05;97938.09;;;3.86;43.14
40285;BME280;25997;50.214;19.354;2023-04-27T01:49:08;97941.38;;;3.82;43.38
40285;BME280;25997;50.214;19.354;2023-04-27T01:52:10;97939.72;;;3.84;43.29
40285;BME280;25997;50.214;19.354;2023-04-27T01:55:14;97939.88;;;3.87;43.53
40285;BME280;25997;50.214;19.354;2023-04-27T01:58:17;97939.06;;;3.88;43.54
40285;BME280;25997;50.214;19.354;2023-04-27T02:01:20;97931.28;;;3.88;43.61
40285;BME280;25997;50.214;19.354;2023-04-27T02:04:22;97934.66;;;3.87;43.45
40285;BME280;25997;50.214;19.354;2023-04-27T02:07:25;97941.50;;;3.85;43.48
40285;BME280;25997;50.214;19.354;2023-04-27T02:10:31;97945.44;;;3.77;43.77
40285;BME280;25997;50.214;19.354;2023-04-27T02:13:34;97946.34;;;3.61;44.15
40285;BME280;25997;50.214;19.354;2023-04-27T02:16:37;97934.28;;;3.45;44.22
40285;BME280;25997;50.214;19.354;2023-04-27T02:19:39;97939.91;;;3.37;44.58
40285;BME280;25997;50.214;19.354;2023-04-27T02:22:42;97946.53;;;3.32;44.50
40285;BME280;25997;50.214;19.354;2023-04-27T02:25:45;97939.19;;;3.23;44.77
40285;BME280;25997;50.214;19.354;2023-04-27T02:28:48;97939.66;;;3.16;44.89
40285;BME280;25997;50.214;19.354;2023-04-27T02:31:51;97947.44;;;3.16;44.68
40285;BME280;25997;50.214;19.354;2023-04-27T02:34:53;97934.78;;;3.22;44.57
40285;BME280;25997;50.214;19.354;2023-04-27T02:37:56;97936.00;;;3.29;44.63
40285;BME280;25997;50.214;19.354;2023-04-27T02:41:00;97940.63;;;3.34;44.56
40285;BME280;25997;50.214;19.354;2023-04-27T02:44:03;97936.47;;;3.38;44.44
40285;BME280;25997;50.214;19.354;2023-04-27T02:47:05;97941.03;;;3.42;44.56
40285;BME280;25997;50.214;19.354;2023-04-27T02:50:08;97941.78;;;3.39;44.60
40285;BME280;25997;50.214;19.354;2023-04-27T02:53:11;97935.28;;;3.31;44.43
40285;BME280;25997;50.214;19.354;2023-04-27T02:56:15;97940.81;;;3.21;44.95
40285;BME280;25997;50.214;19.354;2023-04-27T02:59:17;97941.75;;;3.07;45.11
40285;BME280;25997;50.214;19.354;2023-04-27T03:02:20;97943.47;;;2.91;45.29
40285;BME280;25997;50.214;19.354;2023-04-27T03:05:24;97941.72;;;2.75;45.82
40285;BME280;25997;50.214;19.354;2023-04-27T03:08:28;97944.78;;;2.68;45.96
40285;BME280;25997;50.214;19.354;2023-04-27T03:11:33;97947.84;;;2.61;46.23
40285;BME280;25997;50.214;19.354;2023-04-27T03:14:36;97954.19;;;2.51;46.47
40285;BME280;25997;50.214;19.354;2023-04-27T03:17:38;97954.91;;;2.49;46.19
40285;BME280;25997;50.214;19.354;2023-04-27T03:20:41;97956.47;;;2.45;46.55
40285;BME280;25997;50.214;19.354;2023-04-27T03:23:43;97952.00;;;2.43;46.70
40285;BME280;25997;50.214;19.354;2023-04-27T03:26:47;97955.16;;;2.37;46.63
40285;BME280;25997;50.214;19.354;2023-04-27T03:29:50;97960.97;;;2.33;46.93
40285;BME280;25997;50.214;19.354;2023-04-27T03:32:53;97956.50;;;2.31;47.44
40285;BME280;25997;50.214;19.354;2023-04-27T03:35:56;97968.13;;;2.23;47.76
40285;BME280;25997;50.214;19.354;2023-04-27T03:38:59;97970.56;;;2.20;47.83
40285;BME280;25997;50.214;19.354;2023-04-27T03:42:03;97975.72;;;2.05;48.49
40285;BME280;25997;50.214;19.354;2023-04-27T03:45:06;97976.81;;;1.94;49.03
40285;BME280;25997;50.214;19.354;2023-04-27T03:48:10;97982.69;;;1.91;49.25
40285;BME280;25997;50.214;19.354;2023-04-27T03:51:12;97977.44;;;1.90;48.85
40285;BME280;25997;50.214;19.354;2023-04-27T03:54:18;97980.63;;;2.00;48.49
40285;BME280;25997;50.214;19.354;2023-04-27T03:57:22;97994.38;;;2.14;48.04
40285;BME280;25997;50.214;19.354;2023-04-27T04:00:25;97997.16;;;2.17;48.04
40285;BME280;25997;50.214;19.354;2023-04-27T04:03:27;97997.88;;;2.15;48.00
40285;BME280;25997;50.214;19.354;2023-04-27T04:06:30;98000.28;;;2.12;48.11
40285;BME280;25997;50.214;19.354;2023-04-27T04:09:32;97998.59;;;2.12;48.05
40285;BME280;25997;50.214;19.354;2023-04-27T04:12:37;98003.31;;;2.19;47.88
40285;BME280;25997;50.214;19.354;2023-04-27T04:15:39;98008.06;;;2.26;47.94
40285;BME280;25997;50.214;19.354;2023-04-27T04:18:42;98006.69;;;2.33;47.77
40285;BME280;25997;50.214;19.354;2023-04-27T04:21:44;98006.31;;;2.41;47.81
40285;BME280;25997;50.214;19.354;2023-04-27T04:24:47;98005.03;;;2.49;47.54
40285;BME280;25997;50.214;19.354;2023-04-27T04:27:51;98003.63;;;2.54;47.93
40285;BME280;25997;50.214;19.354;2023-04-27T04:30:54;98001.28;;;2.59;47.94
40285;BME280;25997;50.214;19.354;2023-04-27T04:33:56;98010.59;;;2.55;48.13
40285;BME280;25997;50.214;19.354;2023-04-27T04:36:59;98023.44;;;2.54;48.40
40285;BME280;25997;50.214;19.354;2023-04-27T04:40:04;98012.44;;;2.58;48.62
40285;BME280;25997;50.214;19.354;2023-04-27T04:43:12;98013.78;;;2.66;48.83
40285;BME280;25997;50.214;19.354;2023-04-27T04:46:15;98019.88;;;2.83;48.64
40285;BME280;25997;50.214;19.354;2023-04-27T04:49:17;98018.28;;;2.99;48.37
40285;BME280;25997;50.214;19.354;2023-04-27T04:52:20;98019.81;;;3.12;48.54
40285;BME280;25997;50.214;19.354;2023-04-27T04:55:25;98018.56;;;3.20;49.13
40285;BME280;25997;50.214;19.354;2023-04-27T04:58:29;98032.66;;;3.41;48.43
40285;BME280;25997;50.214;19.354;2023-04-27T05:01:32;98031.69;;;3.55;48.41
40285;BME280;25997;50.214;19.354;2023-04-27T05:04:34;98026.31;;;3.68;48.13
40285;BME280;25997;50.214;19.354;2023-04-27T05:07:37;98029.16;;;3.73;48.26
40285;BME280;25997;50.214;19.354;2023-04-27T05:10:39;98030.13;;;3.75;48.01
40285;BME280;25997;50.214;19.354;2023-04-27T05:13:43;98037.38;;;3.64;48.28
40285;BME280;25997;50.214;19.354;2023-04-27T05:16:45;98039.13;;;3.49;48.65
40285;BME280;25997;50.214;19.354;2023-04-27T05:19:49;98045.13;;;3.32;50.18
40285;BME280;25997;50.214;19.354;2023-04-27T05:22:51;98047.09;;;3.20;50.92
40285;BME280;25997;50.214;19.354;2023-04-27T05:25:54;98048.19;;;3.25;50.68
40285;BME280;25997;50.214;19.354;2023-04-27T05:28:57;98035.81;;;3.52;49.86
40285;BME280;25997;50.214;19.354;2023-04-27T05:32:00;98045.22;;;3.66;49.94
40285;BME280;25997;50.214;19.354;2023-04-27T05:35:03;98042.28;;;3.76;50.61
40285;BME280;25997;50.214;19.354;2023-04-27T05:38:06;98047.16;;;3.86;50.55
40285;BME280;25997;50.214;19.354;2023-04-27T05:41:08;98049.66;;;4.00;50.45
40285;BME280;25997;50.214;19.354;2023-04-27T05:44:12;98054.25;;;4.22;50.72
40285;BME280;25997;50.214;19.354;2023-04-27T05:47:15;98060.81;;;4.49;49.52
40285;BME280;25997;50.214;19.354;2023-04-27T05:50:17;98071.09;;;4.64;49.25
40285;BME280;25997;50.214;19.354;2023-04-27T05:53:19;98067.78;;;4.84;48.69
40285;BME280;25997;50.214;19.354;2023-04-27T05:56:22;98068.22;;;4.93;48.21
40285;BME280;25997;50.214;19.354;2023-04-27T05:59:26;98070.44;;;4.85;48.43
40285;BME280;25997;50.214;19.354;2023-04-27T06:02:29;98072.66;;;4.96;48.13
40285;BME280;25997;50.214;19.354;2023-04-27T06:05:31;98069.69;;;5.06;48.15
40285;BME280;25997;50.214;19.354;2023-04-27T06:08:34;98076.25;;;5.15;48.16
40285;BME280;25997;50.214;19.354;2023-04-27T06:11:37;98074.88;;;5.23;47.80
40285;BME280;25997;50.214;19.354;2023-04-27T06:14:42;98059.84;;;5.35;47.70
40285;BME280;25997;50.214;19.354;2023-04-27T06:17:45;98077.38;;;5.39;47.64
40285;BME280;25997;50.214;19.354;2023-04-27T06:20:47;98080.66;;;5.35;47.01
40285;BME280;25997;50.214;19.354;2023-04-27T06:23:50;98076.97;;;5.49;46.71
40285;BME280;25997;50.214;19.354;2023-04-27T06:26:52;98083.88;;;5.49;46.44
40285;BME280;25997;50.214;19.354;2023-04-27T06:29:57;98092.13;;;5.58;46.39
40285;BME280;25997;50.214;19.354;2023-04-27T06:32:59;98092.00;;;5.74;45.97
40285;BME280;25997;50.214;19.354;2023-04-27T06:36:02;98093.59;;;5.90;45.62
40285;BME280;25997;50.214;19.354;2023-04-27T06:39:04;98085.75;;;6.09;45.07
40285;BME280;25997;50.214;19.354;2023-04-27T06:42:07;98100.03;;;6.36;44.99
40285;BME280;25997;50.214;19.354;2023-04-27T06:45:11;98091.34;;;6.56;44.64
40285;BME280;25997;50.214;19.354;2023-04-27T06:48:14;98089.78;;;6.60;44.13
40285;BME280;25997;50.214;19.354;2023-04-27T06:51:16;98087.13;;;6.80;43.86
40285;BME280;25997;50.214;19.354;2023-04-27T06:54:19;98087.13;;;7.01;43.33
40285;BME280;25997;50.214;19.354;2023-04-27T06:57:21;98092.59;;;7.07;43.22
40285;BME280;25997;50.214;19.354;2023-04-27T07:00:25;98085.47;;;7.03;43.39
40285;BME280;25997;50.214;19.354;2023-04-27T07:03:28;98090.88;;;7.07;43.21
40285;BME280;25997;50.214;19.354;2023-04-27T07:06:31;98096.88;;;7.27;42.82
40285;BME280;25997;50.214;19.354;2023-04-27T07:09:33;98096.44;;;7.59;42.53
40285;BME280;25997;50.214;19.354;2023-04-27T07:12:36;98097.19;;;7.57;41.92
40285;BME280;25997;50.214;19.354;2023-04-27T07:15:40;98093.31;;;7.68;42.50
40285;BME280;25997;50.214;19.354;2023-04-27T07:18:43;98089.47;;;8.04;42.09
40285;BME280;25997;50.214;19.354;2023-04-27T07:21:45;98086.41;;;8.41;41.93
40285;BME280;25997;50.214;19.354;2023-04-27T07:24:47;98090.50;;;8.83;41.39
40285;BME280;25997;50.214;19.354;2023-04-27T07:27:50;98092.97;;;9.31;40.95
40285;BME280;25997;50.214;19.354;2023-04-27T07:30:54;98089.31;;;9.82;40.60
40285;BME280;25997;50.214;19.354;2023-04-27T07:33:57;98087.59;;;10.12;40.28
40285;BME280;25997;50.214;19.354;2023-04-27T07:37:00;98091.31;;;10.20;40.30
40285;BME280;25997;50.214;19.354;2023-04-27T07:40:03;98086.66;;;10.09;39.55
40285;BME280;25997;50.214;19.354;2023-04-27T07:43:10;98081.22;;;9.74;39.45
40285;BME280;25997;50.214;19.354;2023-04-27T07:46:14;98086.41;;;9.45;39.27
40285;BME280;25997;50.214;19.354;2023-04-27T07:49:17;98090.22;;;9.26;39.36
40285;BME280;25997;50.214;19.354;2023-04-27T07:52:19;98089.34;;;9.00;39.69
40285;BME280;25997;50.214;19.354;2023-04-27T07:55:23;98095.06;;;8.89;39.66
40285;BME280;25997;50.214;19.354;2023-04-27T07:58:25;98091.94;;;8.99;39.77
40285;BME280;25997;50.214;19.354;2023-04-27T08:01:29;98092.34;;;9.11;39.22
40285;BME280;25997;50.214;19.354;2023-04-27T08:04:31;98084.97;;;9.26;38.91
40285;BME280;25997;50.214;19.354;2023-04-27T08:07:34;98090.66;;;9.40;38.46
40285;BME280;25997;50.214;19.354;2023-04-27T08:10:36;98086.03;;;9.33;36.91
40285;BME280;25997;50.214;19.354;2023-04-27T08:13:39;98098.38;;;9.08;35.44
40285;BME280;25997;50.214;19.354;2023-04-27T08:16:43;98101.56;;;9.00;36.33
40285;BME280;25997;50.214;19.354;2023-04-27T08:19:46;98094.38;;;9.19;36.70
40285;BME280;25997;50.214;19.354;2023-04-27T08:22:49;98089.34;;;9.27;36.36
40285;BME280;25997;50.214;19.354;2023-04-27T08:25:52;98095.50;;;9.56;36.12
40285;BME280;25997;50.214;19.354;2023-04-27T08:28:55;98093.50;;;9.75;36.45
40285;BME280;25997;50.214;19.354;2023-04-27T08:32:00;98098.34;;;9.35;37.30
40285;BME280;25997;50.214;19.354;2023-04-27T08:35:03;98100.66;;;8.74;38.27
40285;BME280;25997;50.214;19.354;2023-04-27T08:38:06;98091.97;;;8.50;38.90
40285;BME280;25997;50.214;19.354;2023-04-27T08:41:09;98090.22;;;8.76;38.59
40285;BME280;25997;50.214;19.354;2023-04-27T08:44:11;98092.06;;;8.78;38.45
40285;BME280;25997;50.214;19.354;2023-04-27T08:47:15;98105.81;;;8.96;38.19
40285;BME280;25997;50.214;19.354;2023-04-27T08:50:18;98095.13;;;8.90;38.06
40285;BME280;25997;50.214;19.354;2023-04-27T08:53:22;98101.88;;;8.84;37.84
40285;BME280;25997;50.214;19.354;2023-04-27T08:56:27;98105.16;;;8.78;37.70
40285;BME280;25997;50.214;19.354;2023-04-27T08:59:30;98108.03;;;8.86;37.04
40285;BME280;25997;50.214;19.354;2023-04-27T09:02:35;98098.97;;;9.26;36.82
40285;BME280;25997;50.214;19.354;2023-04-27T09:05:45;98099.59;;;9.76;36.85
40285;BME280;25997;50.214;19.354;2023-04-27T09:08:48;98100.59;;;9.79;34.24
40285;BME280;25997;50.214;19.354;2023-04-27T09:11:51;98106.25;;;9.65;36.39
40285;BME280;25997;50.214;19.354;2023-04-27T09:14:56;98099.72;;;9.51;35.77
40285;BME280;25997;50.214;19.354;2023-04-27T09:18:01;98107.91;;;9.33;36.26
40285;BME280;25997;50.214;19.354;2023-04-27T09:21:03;98105.31;;;9.08;35.38
40285;BME280;25997;50.214;19.354;2023-04-27T09:24:10;98103.19;;;8.96;33.72
40285;BME280;25997;50.214;19.354;2023-04-27T09:27:18;98112.78;;;9.22;33.52
40285;BME280;25997;50.214;19.354;2023-04-27T09:30:22;98102.88;;;9.69;35.15
40285;BME280;25997;50.214;19.354;2023-04-27T09:33:27;98102.56;;;10.46;34.76
40285;BME280;25997;50.214;19.354;2023-04-27T09:36:30;98096.69;;;11.21;34.11
40285;BME280;25997;50.214;19.354;2023-04-27T09:39:34;98093.31;;;11.64;33.53
40285;BME280;25997;50.214;19.354;2023-04-27T09:42:37;98092.69;;;12.14;33.87
40285;BME280;25997;50.214;19.354;2023-04-27T09:45:41;98091.53;;;12.44;33.32
40285;BME280;25997;50.214;19.354;2023-04-27T09:48:45;98092.25;;;12.37;33.03
40285;BME280;25997;50.214;19.354;2023-04-27T09:51:47;98092.91;;;12.25;33.62
40285;BME280;25997;50.214;19.354;2023-04-27T09:54:51;98099.25;;;11.94;32.23
40285;BME280;25997;50.214;19.354;2023-04-27T09:58:05;98099.88;;;11.44;32.45
40285;BME280;25997;50.214;19.354;2023-04-27T10:01:17;98105.09;;;11.08;31.18
40285;BME280;25997;50.214;19.354;2023-04-27T10:04:39;98095.22;;;10.65;30.82
40285;BME280;25997;50.214;19.354;2023-04-27T10:07:47;98111.34;;;10.17;32.61
40285;BME280;25997;50.214;19.354;2023-04-27T10:10:52;98106.44;;;9.99;33.05
40285;BME280;25997;50.214;19.354;2023-04-27T10:13:54;98101.69;;;10.16;32.67
40285;BME280;25997;50.214;19.354;2023-04-27T10:16:58;98098.59;;;10.61;33.12
40285;BME280;25997;50.214;19.354;2023-04-27T10:20:03;98097.59;;;11.61;31.71
40285;BME280;25997;50.214;19.354;2023-04-27T10:23:09;98085.00;;;12.71;32.66
40285;BME280;25997;50.214;19.354;2023-04-27T10:26:11;98088.13;;;12.97;31.27
40285;BME280;25997;50.214;19.354;2023-04-27T10:29:14;98085.72;;;13.09;31.44
40285;BME280;25997;50.214;19.354;2023-04-27T10:32:20;98078.00;;;13.20;31.46
40285;BME280;25997;50.214;19.354;2023-04-27T10:35:32;98073.81;;;12.83;30.32
40285;BME280;25997;50.214;19.354;2023-04-27T10:38:39;98079.78;;;11.86;31.55
40285;BME280;25997;50.214;19.354;2023-04-27T10:41:48;98083.56;;;11.23;31.14
40285;BME280;25997;50.214;19.354;2023-04-27T10:44:53;98101.06;;;10.88;32.34
40285;BME280;25997;50.214;19.354;2023-04-27T10:47:59;98100.91;;;10.49;32.13
40285;BME280;25997;50.214;19.354;2023-04-27T10:51:03;98100.47;;;10.34;31.04
40285;BME280;25997;50.214;19.354;2023-04-27T10:54:07;98093.66;;;10.41;32.17
40285;BME280;25997;50.214;19.354;2023-04-27T10:57:10;98104.31;;;10.16;31.90
40285;BME280;25997;50.214;19.354;2023-04-27T11:00:14;98117.59;;;9.92;32.42
40285;BME280;25997;50.214;19.354;2023-04-27T11:03:22;98116.75;;;9.93;31.73
40285;BME280;25997;50.214;19.354;2023-04-27T11:06:27;98109.72;;;9.92;32.63
40285;BME280;25997;50.214;19.354;2023-04-27T11:09:30;98116.84;;;10.24;32.77
40285;BME280;25997;50.214;19.354;2023-04-27T11:12:32;98116.59;;;10.79;32.03
40285;BME280;25997;50.214;19.354;2023-04-27T11:15:45;98106.50;;;11.28;32.17
40285;BME280;25997;50.214;19.354;2023-04-27T11:18:48;98110.19;;;12.11;31.85
40285;BME280;25997;50.214;19.354;2023-04-27T11:22:01;98101.31;;;12.97;30.90
40285;BME280;25997;50.214;19.354;2023-04-27T11:25:04;98104.44;;;13.81;31.42
40285;BME280;25997;50.214;19.354;2023-04-27T11:28:16;98105.16;;;13.71;27.30
40285;BME280;25997;50.214;19.354;2023-04-27T11:31:19;98098.97;;;13.69;30.54
40285;BME280;25997;50.214;19.354;2023-04-27T11:34:22;98097.56;;;14.60;30.98
40285;BME280;25997;50.214;19.354;2023-04-27T11:37:27;98103.66;;;14.56;29.19
40285;BME280;25997;50.214;19.354;2023-04-27T11:40:30;98103.13;;;13.53;29.85
40285;BME280;25997;50.214;19.354;2023-04-27T11:43:39;98095.03;;;13.40;28.93
40285;BME280;25997;50.214;19.354;2023-04-27T11:46:43;98105.19;;;12.69;29.79
40285;BME280;25997;50.214;19.354;2023-04-27T11:49:47;98104.69;;;12.44;30.47
40285;BME280;25997;50.214;19.354;2023-04-27T11:52:52;98112.72;;;12.50;29.80
40285;BME280;25997;50.214;19.354;2023-04-27T11:55:54;98097.69;;;12.92;30.58
40285;BME280;25997;50.214;19.354;2023-04-27T11:58:57;98104.91;;;13.02;29.88
40285;BME280;25997;50.214;19.354;2023-04-27T12:01:59;98089.34;;;12.68;29.65
40285;BME280;25997;50.214;19.354;2023-04-27T12:05:02;98095.06;;;11.64;30.10
40285;BME280;25997;50.214;19.354;2023-04-27T12:08:07;98100.44;;;11.31;30.20
40285;BME280;25997;50.214;19.354;2023-04-27T12:11:09;98115.06;;;10.56;30.94
40285;BME280;25997;50.214;19.354;2023-04-27T12:14:12;98086.13;;;10.53;31.04
40285;BME280;25997;50.214;19.354;2023-04-27T12:17:15;98101.63;;;10.44;31.65
40285;BME280;25997;50.214;19.354;2023-04-27T12:20:17;98095.34;;;10.70;31.34
40285;BME280;25997;50.214;19.354;2023-04-27T12:23:21;98102.66;;;10.82;30.71
40285;BME280;25997;50.214;19.354;2023-04-27T12:26:23;98099.47;;;10.95;31.06
40285;BME280;25997;50.214;19.354;2023-04-27T12:29:26;98116.06;;;10.92;30.65
40285;BME280;25997;50.214;19.354;2023-04-27T12:32:29;98111.03;;;11.01;30.84
40285;BME280;25997;50.214;19.354;2023-04-27T12:35:31;98101.13;;;11.24;31.18
40285;BME280;25997;50.214;19.354;2023-04-27T12:38:35;98101.50;;;11.39;30.83
40285;BME280;25997;50.214;19.354;2023-04-27T12:41:38;98097.38;;;11.14;30.61
40285;BME280;25997;50.214;19.354;2023-04-27T12:44:40;98109.63;;;10.81;30.37
40285;BME280;25997;50.214;19.354;2023-04-27T12:47:43;98102.41;;;10.72;31.32
40285;BME280;25997;50.214;19.354;2023-04-27T12:50:45;98100.94;;;10.84;31.11
40285;BME280;25997;50.214;19.354;2023-04-27T12:53:49;98105.84;;;10.70;30.22
40285;BME280;25997;50.214;19.354;2023-04-27T12:56:52;98094.88;;;10.86;30.99
40285;BME280;25997;50.214;19.354;2023-04-27T12:59:54;98099.19;;;11.15;30.99
40285;BME280;25997;50.214;19.354;2023-04-27T13:02:56;98098.66;;;11.30;30.36
40285;BME280;25997;50.214;19.354;2023-04-27T13:05:59;98095.91;;;11.25;30.69
40285;BME280;25997;50.214;19.354;2023-04-27T13:09:03;98098.31;;;11.54;30.80
40285;BME280;25997;50.214;19.354;2023-04-27T13:12:06;98094.25;;;11.66;30.44
40285;BME280;25997;50.214;19.354;2023-04-27T13:15:09;98091.72;;;11.71;30.52
40285;BME280;25997;50.214;19.354;2023-04-27T13:18:12;98099.97;;;11.87;30.20
40285;BME280;25997;50.214;19.354;2023-04-27T13:21:14;98093.88;;;11.88;30.42
40285;BME280;25997;50.214;19.354;2023-04-27T13:24:18;98088.78;;;11.97;30.08
40285;BME280;25997;50.214;19.354;2023-04-27T13:27:21;98093.13;;;11.95;29.77
40285;BME280;25997;50.214;19.354;2023-04-27T13:30:25;98093.16;;;12.37;30.08
40285;BME280;25997;50.214;19.354;2023-04-27T13:33:27;98100.59;;;13.06;30.14
40285;BME280;25997;50.214;19.354;2023-04-27T13:36:30;98097.22;;;13.13;28.99
40285;BME280;25997;50.214;19.354;2023-04-27T13:39:34;98097.44;;;12.77;29.48
40285;BME280;25997;50.214;19.354;2023-04-27T13:42:37;98095.56;;;12.27;29.70
40285;BME280;25997;50.214;19.354;2023-04-27T13:45:40;98090.22;;;11.82;29.92
40285;BME280;25997;50.214;19.354;2023-04-27T13:48:42;98096.38;;;11.45;30.54
40285;BME280;25997;50.214;19.354;2023-04-27T13:51:45;98096.31;;;11.42;30.89
40285;BME280;25997;50.214;19.354;2023-04-27T13:54:49;98103.19;;;11.74;31.08
40285;BME280;25997;50.214;19.354;2023-04-27T13:57:51;98106.31;;;11.97;30.70
40285;BME280;25997;50.214;19.354;2023-04-27T14:00:54;98106.66;;;12.12;30.25
40285;BME280;25997;50.214;19.354;2023-04-27T14:03:56;98100.38;;;12.07;30.42
40285;BME280;25997;50.214;19.354;2023-04-27T14:06:59;98102.88;;;12.40;30.40
40285;BME280;25997;50.214;19.354;2023-04-27T14:10:03;98110.44;;;12.68;30.06
40285;BME280;25997;50.214;19.354;2023-04-27T14:13:06;98107.44;;;12.96;29.68
40285;BME280;25997;50.214;19.354;2023-04-27T14:16:08;98109.59;;;13.18;29.56
40285;BME280;25997;50.214;19.354;2023-04-27T14:19:11;98105.91;;;13.07;29.46
40285;BME280;25997;50.214;19.354;2023-04-27T14:22:15;98113.97;;;12.70;29.38
40285;BME280;25997;50.214;19.354;2023-04-27T14:25:19;98113.50;;;12.46;29.21
40285;BME280;25997;50.214;19.354;2023-04-27T14:28:22;98113.63;;;12.10;29.37
40285;BME280;25997;50.214;19.354;2023-04-27T14:31:24;98116.84;;;11.97;29.81
40285;BME280;25997;50.214;19.354;2023-04-27T14:34:29;98119.56;;;12.00;28.87
40285;BME280;25997;50.214;19.354;2023-04-27T14:37:31;98131.50;;;11.84;29.14
40285;BME280;25997;50.214;19.354;2023-04-27T14:40:35;98132.63;;;11.97;29.33
40285;BME280;25997;50.214;19.354;2023-04-27T14:43:38;98137.31;;;12.10;29.46
40285;BME280;25997;50.214;19.354;2023-04-27T14:46:40;98127.38;;;12.37;29.21
40285;BME280;25997;50.214;19.354;2023-04-27T14:49:42;98133.13;;;13.06;29.20
40285;BME280;25997;50.214;19.354;2023-04-27T14:52:45;98131.50;;;14.26;28.73
40285;BME280;25997;50.214;19.354;2023-04-27T14:55:49;98129.78;;;15.05;27.79
40285;BME280;25997;50.214;19.354;2023-04-27T14:58:52;98123.84;;;15.32;27.47
40285;BME280;25997;50.214;19.354;2023-04-27T15:01:55;98125.78;;;15.51;27.40
40285;BME280;25997;50.214;19.354;2023-04-27T15:04:57;98119.75;;;15.65;27.10
40285;BME280;25997;50.214;19.354;2023-04-27T15:08:00;98119.22;;;15.10;27.17
40285;BME280;25997;50.214;19.354;2023-04-27T15:11:04;98126.91;;;14.13;27.56
40285;BME280;25997;50.214;19.354;2023-04-27T15:14:07;98136.34;;;13.39;28.04
40285;BME280;25997;50.214;19.354;2023-04-27T15:17:09;98128.50;;;12.95;28.37
40285;BME280;25997;50.214;19.354;2023-04-27T15:20:13;98134.22;;;12.71;27.83
40285;BME280;25997;50.214;19.354;2023-04-27T15:23:15;98141.97;;;12.65;28.77
40285;BME280;25997;50.214;19.354;2023-04-27T15:26:20;98132.25;;;12.61;28.70
40285;BME280;25997;50.214;19.354;2023-04-27T15:29:22;98144.72;;;12.28;28.79
40285;BME280;25997;50.214;19.354;2023-04-27T15:32:26;98143.38;;;12.06;29.05
40285;BME280;25997;50.214;19.354;2023-04-27T15:35:30;98147.97;;;11.77;29.24
40285;BME280;25997;50.214;19.354;2023-04-27T15:38:32;98144.84;;;11.56;29.38
40285;BME280;25997;50.214;19.354;2023-04-27T15:41:36;98141.81;;;11.39;29.55
40285;BME280;25997;50.214;19.354;2023-04-27T15:44:40;98140.84;;;11.36;29.84
40285;BME280;25997;50.214;19.354;2023-04-27T15:47:43;98140.16;;;11.43;30.07
40285;BME280;25997;50.214;19.354;2023-04-27T15:50:45;98135.09;;;11.51;29.92
40285;BME280;25997;50.214;19.354;2023-04-27T15:53:48;98142.09;;;11.52;29.85
40285;BME280;25997;50.214;19.354;2023-04-27T15:56:52;98134.38;;;11.58;29.88
40285;BME280;25997;50.214;19.354;2023-04-27T15:59:54;98130.16;;;11.64;29.89
40285;BME280;25997;50.214;19.354;2023-04-27T16:02:57;98142.28;;;11.58;29.70
40285;BME280;25997;50.214;19.354;2023-04-27T16:06:00;98139.34;;;11.45;29.85